createdAt,value
2018-03-22T00:00:11.126Z,0.50
2018-03-22T00:02:39.541Z,0.40
2018-03-22T00:05:07.186Z,0.50
2018-03-22T00:07:35.554Z,0.60
2018-03-22T00:10:04.008Z,0.63
2018-03-22T00:12:33.113Z,0.43
2018-03-22T00:15:00.702Z,0.80
2018-03-22T00:17:28.447Z,0.50
2018-03-22T00:19:57.290Z,0.50
2018-03-22T00:22:37.229Z,1.13
2018-03-22T00:25:04.892Z,0.93
2018-03-22T00:27:32.560Z,0.90
2018-03-22T00:30:00.197Z,0.83
2018-03-22T00:32:27.919Z,0.70
2018-03-22T00:34:55.556Z,0.70
2018-03-22T00:37:23.997Z,0.90
2018-03-22T00:39:51.839Z,0.70
2018-03-22T00:42:19.479Z,1.00
2018-03-22T00:44:47.296Z,0.63
2018-03-22T00:47:15.299Z,0.80
2018-03-22T00:49:43.583Z,0.70
2018-03-22T00:52:11.257Z,0.90
2018-03-22T00:54:40.296Z,0.77
2018-03-22T00:57:07.921Z,0.60
2018-03-22T00:59:36.491Z,0.70
2018-03-22T01:02:04.209Z,0.80
2018-03-22T01:04:31.797Z,0.60
2018-03-22T01:06:59.634Z,1.07
2018-03-22T01:09:27.263Z,0.73
2018-03-22T01:11:55.054Z,0.73
2018-03-22T01:14:22.669Z,0.70
2018-03-22T01:16:52.106Z,0.93
2018-03-22T01:19:21.405Z,0.70
2018-03-22T01:21:50.561Z,0.70
2018-03-22T01:24:19.980Z,0.80
2018-03-22T01:26:47.837Z,0.80
2018-03-22T01:29:15.426Z,0.67
2018-03-22T01:31:44.210Z,0.60
2018-03-22T01:34:11.844Z,0.90
2018-03-22T01:36:39.626Z,0.90
2018-03-22T01:39:07.707Z,0.80
2018-03-22T01:41:35.462Z,0.80
2018-03-22T01:44:03.532Z,0.90
2018-03-22T01:46:31.236Z,0.73
2018-03-22T01:48:59.620Z,0.60
2018-03-22T01:51:28.076Z,0.60
2018-03-22T01:53:55.746Z,0.90
2018-03-22T01:56:24.154Z,0.80
2018-03-22T01:58:51.833Z,0.70
2018-03-22T02:01:19.614Z,0.80
2018-03-22T02:03:47.326Z,0.90
2018-03-22T02:06:15.879Z,1.00
2018-03-22T02:08:43.509Z,0.70
2018-03-22T02:11:11.177Z,0.87
2018-03-22T02:13:38.869Z,0.70
2018-03-22T02:16:06.491Z,0.77
2018-03-22T02:18:34.301Z,0.70
2018-03-22T02:21:02.783Z,0.70
2018-03-22T02:23:31.243Z,0.63
2018-03-22T02:25:58.973Z,0.60
2018-03-22T02:28:26.671Z,0.73
2018-03-22T02:30:54.284Z,0.70
2018-03-22T02:33:23.499Z,0.60
2018-03-22T02:35:52.210Z,0.77
2018-03-22T02:38:20.672Z,0.60
2018-03-22T02:40:48.449Z,0.40
2018-03-22T02:43:16.106Z,0.73
2018-03-22T02:45:43.761Z,0.80
2018-03-22T02:48:12.186Z,0.70
2018-03-22T02:50:39.893Z,0.57
2018-03-22T02:53:07.510Z,0.90
2018-03-22T02:55:35.088Z,0.60
2018-03-22T02:58:02.679Z,0.70
2018-03-22T03:00:30.301Z,0.90
2018-03-22T03:02:57.923Z,0.60
2018-03-22T03:05:26.307Z,0.63
2018-03-22T03:07:54.690Z,0.60
2018-03-22T03:10:23.083Z,0.80
2018-03-22T03:12:50.791Z,0.77
2018-03-22T03:15:18.404Z,0.80
2018-03-22T03:17:46.024Z,0.70
2018-03-22T03:20:13.640Z,0.70
2018-03-22T03:22:41.209Z,0.73
2018-03-22T03:25:08.793Z,0.60
2018-03-22T03:27:36.359Z,0.63
2018-03-22T03:30:03.999Z,0.70
2018-03-22T03:32:31.591Z,0.80
2018-03-22T03:34:59.980Z,1.00
2018-03-22T03:37:28.367Z,0.73
2018-03-22T03:39:55.994Z,0.80
2018-03-22T03:42:23.597Z,0.60
2018-03-22T03:44:51.328Z,0.70
2018-03-22T03:47:19.737Z,0.80
2018-03-22T03:49:47.335Z,0.73
2018-03-22T03:52:14.921Z,0.90
2018-03-22T03:54:43.276Z,0.80
2018-03-22T03:57:10.895Z,0.80
2018-03-22T03:59:38.655Z,0.70
2018-03-22T04:02:06.265Z,0.80
2018-03-22T04:04:33.916Z,0.77
2018-03-22T04:07:01.653Z,0.70
2018-03-22T04:09:29.281Z,0.83
2018-03-22T04:11:56.856Z,0.87
2018-03-22T04:14:24.470Z,0.87
2018-03-22T04:16:53.000Z,0.63
2018-03-22T04:19:20.719Z,0.80
2018-03-22T04:21:49.175Z,0.83
2018-03-22T04:24:16.793Z,0.90
2018-03-22T04:26:44.385Z,0.97
2018-03-22T04:29:11.972Z,0.70
2018-03-22T04:31:40.371Z,0.80
2018-03-22T04:34:07.954Z,0.70
2018-03-22T04:36:35.567Z,0.80
2018-03-22T04:39:03.899Z,0.77
2018-03-22T04:41:31.535Z,0.60
2018-03-22T04:43:59.120Z,0.70
2018-03-22T04:46:26.815Z,0.70
2018-03-22T04:48:55.153Z,0.80
2018-03-22T04:51:22.736Z,0.80
2018-03-22T04:53:50.320Z,0.90
2018-03-22T04:56:17.922Z,0.80
2018-03-22T04:58:45.509Z,0.63
2018-03-22T05:01:13.100Z,0.57
2018-03-22T05:03:40.687Z,0.80
2018-03-22T05:06:08.259Z,0.60
2018-03-22T05:08:35.855Z,1.03
2018-03-22T05:11:04.192Z,0.83
2018-03-22T05:13:31.789Z,0.80
2018-03-22T05:15:59.374Z,0.80
2018-03-22T05:18:26.980Z,0.80
2018-03-22T05:20:54.569Z,0.73
2018-03-22T05:23:22.924Z,0.87
2018-03-22T05:25:50.659Z,0.53
2018-03-22T05:28:19.130Z,1.00
2018-03-22T05:30:47.079Z,0.90
2018-03-22T05:33:14.711Z,0.80
2018-03-22T05:35:43.120Z,0.60
2018-03-22T05:38:10.743Z,0.60
2018-03-22T05:40:39.083Z,0.70
2018-03-22T05:43:06.658Z,0.50
2018-03-22T05:45:35.734Z,0.83
2018-03-22T05:48:03.345Z,0.50
2018-03-22T05:50:31.787Z,0.60
2018-03-22T05:52:59.371Z,0.70
2018-03-22T05:55:27.711Z,0.80
2018-03-22T05:57:55.382Z,0.67
2018-03-22T06:00:23.043Z,0.90
2018-03-22T06:02:50.647Z,0.60
2018-03-22T06:05:18.251Z,0.87
2018-03-22T06:07:45.833Z,0.87
2018-03-22T06:10:13.416Z,0.50
2018-03-22T06:12:41.783Z,0.77
2018-03-22T06:15:10.136Z,0.63
2018-03-22T06:17:37.789Z,0.57
2018-03-22T06:20:05.363Z,0.90
2018-03-22T06:22:33.012Z,1.00
2018-03-22T06:25:00.587Z,0.83
2018-03-22T06:27:28.171Z,0.77
2018-03-22T06:29:55.763Z,0.60
2018-03-22T06:32:23.358Z,0.70
2018-03-22T06:34:51.741Z,0.87
2018-03-22T06:37:20.160Z,0.77
2018-03-22T06:39:47.727Z,0.80
2018-03-22T06:42:15.345Z,0.70
2018-03-22T06:44:43.685Z,0.80
2018-03-22T06:47:11.266Z,0.77
2018-03-22T06:49:39.943Z,0.67
2018-03-22T06:52:07.518Z,0.70
2018-03-22T06:54:35.862Z,0.90
2018-03-22T06:57:03.438Z,0.60
2018-03-22T06:59:31.883Z,0.70
2018-03-22T07:01:59.490Z,0.70
2018-03-22T07:04:27.876Z,0.80
2018-03-22T07:06:56.324Z,0.97
2018-03-22T07:09:23.944Z,0.60
2018-03-22T07:11:51.564Z,0.80
2018-03-22T07:14:19.917Z,0.50
2018-03-22T07:16:47.516Z,0.70
2018-03-22T07:19:15.162Z,0.63
2018-03-22T07:21:43.704Z,0.80
2018-03-22T07:24:11.318Z,0.70
2018-03-22T07:26:39.276Z,0.70
2018-03-22T07:29:06.875Z,0.67
2018-03-22T07:31:34.475Z,0.50
2018-03-22T07:34:02.858Z,0.53
2018-03-22T07:36:31.214Z,0.50
2018-03-22T07:38:58.782Z,0.43
2018-03-22T07:41:26.364Z,0.70
2018-03-22T07:43:54.704Z,0.50
2018-03-22T07:46:23.058Z,0.60
2018-03-22T07:48:50.618Z,0.40
2018-03-22T07:51:18.231Z,0.80
2018-03-22T07:53:46.568Z,0.70
2018-03-22T07:56:14.214Z,0.40
2018-03-22T07:58:41.821Z,0.40
2018-03-22T08:01:10.306Z,0.50
2018-03-22T08:03:38.306Z,0.40
2018-03-22T08:06:05.948Z,0.40
2018-03-22T08:08:33.581Z,0.40
2018-03-22T08:11:01.992Z,0.50
2018-03-22T08:13:29.576Z,0.40
2018-03-22T08:15:57.194Z,0.50
2018-03-22T08:18:24.797Z,0.30
2018-03-22T08:20:52.626Z,0.50
2018-03-22T08:23:20.215Z,0.40
2018-03-22T08:25:47.863Z,0.40
2018-03-22T08:28:15.471Z,0.60
2018-03-22T08:30:43.910Z,0.63
2018-03-22T08:33:11.499Z,0.33
2018-03-22T08:35:40.064Z,0.57
2018-03-22T08:38:07.633Z,0.40
2018-03-22T08:40:37.023Z,0.50
2018-03-22T08:43:04.691Z,0.60
2018-03-22T08:45:32.273Z,0.60
2018-03-22T08:48:00.657Z,0.50
2018-03-22T08:50:29.016Z,0.33
2018-03-22T08:52:56.609Z,0.30
2018-03-22T08:55:24.191Z,0.30
2018-03-22T08:57:51.782Z,0.50
2018-03-22T09:00:19.421Z,0.53
2018-03-22T09:02:47.062Z,0.33
2018-03-22T09:05:14.629Z,0.60
2018-03-22T09:07:42.298Z,0.70
2018-03-22T09:10:09.896Z,0.60
2018-03-22T09:12:38.531Z,0.47
2018-03-22T09:15:06.150Z,0.50
2018-03-22T09:17:34.615Z,0.43
2018-03-22T09:20:03.039Z,0.57
2018-03-22T09:22:30.672Z,0.43
2018-03-22T09:24:58.299Z,0.60
2018-03-22T09:27:25.905Z,0.53
2018-03-22T09:29:54.411Z,0.50
2018-03-22T09:32:22.172Z,0.40
2018-03-22T09:34:49.804Z,0.33
2018-03-22T09:37:18.509Z,0.30
2018-03-22T09:39:46.232Z,0.60
2018-03-22T09:42:14.624Z,0.30
2018-03-22T09:44:42.234Z,0.50
2018-03-22T09:47:09.895Z,0.40
2018-03-22T09:49:38.894Z,0.40
2018-03-22T09:52:07.275Z,0.50
2018-03-22T09:54:34.878Z,0.50
2018-03-22T09:57:02.506Z,0.43
2018-03-22T09:59:30.876Z,0.47
2018-03-22T10:01:59.267Z,0.40
2018-03-22T10:04:26.856Z,0.50
2018-03-22T10:06:54.520Z,0.43
2018-03-22T10:09:22.201Z,0.40
2018-03-22T10:11:49.810Z,0.50
2018-03-22T10:14:17.438Z,0.47
2018-03-22T10:16:45.067Z,0.30
2018-03-22T10:19:12.633Z,0.60
2018-03-22T10:21:40.340Z,0.30
2018-03-22T10:24:08.895Z,0.43
2018-03-22T10:26:36.546Z,0.60
2018-03-22T10:29:04.287Z,0.30
2018-03-22T10:31:31.863Z,0.30
2018-03-22T10:33:59.488Z,0.57
2018-03-22T10:36:27.074Z,0.40
2018-03-22T10:38:54.685Z,0.40
2018-03-22T10:41:22.286Z,0.60
2018-03-22T10:43:49.934Z,0.60
2018-03-22T10:46:17.490Z,0.60
2018-03-22T10:48:45.233Z,0.47
2018-03-22T10:51:12.843Z,0.20
2018-03-22T10:53:40.467Z,0.40
2018-03-22T10:56:08.031Z,0.53
2018-03-22T10:58:35.635Z,0.50
2018-03-22T11:01:09.675Z,0.60
2018-03-22T11:03:42.801Z,0.30
2018-03-22T11:06:10.467Z,0.50
2018-03-22T11:08:38.278Z,0.50
2018-03-22T11:11:05.924Z,0.53
2018-03-22T11:13:34.357Z,0.40
2018-03-22T11:16:01.996Z,0.33
2018-03-22T11:18:29.773Z,0.43
2018-03-22T11:20:57.437Z,0.40
2018-03-22T11:23:25.199Z,0.40
2018-03-22T11:25:52.779Z,0.37
2018-03-22T11:28:20.414Z,0.50
2018-03-22T11:30:47.982Z,0.30
2018-03-22T11:33:15.551Z,0.30
2018-03-22T11:35:43.264Z,0.60
2018-03-22T11:38:10.941Z,0.20
2018-03-22T11:40:38.579Z,0.50
2018-03-22T11:43:06.159Z,0.50
2018-03-22T11:45:33.740Z,0.57
2018-03-22T11:48:01.375Z,0.40
2018-03-22T11:50:29.012Z,0.50
2018-03-22T11:52:56.609Z,0.50
2018-03-22T11:55:24.212Z,0.60
2018-03-22T11:57:53.165Z,0.40
2018-03-22T12:00:21.760Z,0.43
2018-03-22T12:02:49.409Z,0.40
2018-03-22T12:05:17.102Z,0.33
2018-03-22T12:07:45.848Z,0.50
2018-03-22T12:10:14.907Z,0.37
2018-03-22T12:12:42.677Z,0.40
2018-03-22T12:15:10.398Z,0.50
2018-03-22T12:17:39.256Z,0.50
2018-03-22T12:20:07.727Z,0.50
2018-03-22T12:22:37.328Z,0.50
2018-03-22T12:25:06.525Z,0.50
2018-03-22T12:27:36.239Z,0.40
2018-03-22T12:30:05.711Z,0.40
2018-03-22T12:32:35.034Z,0.50
2018-03-22T12:35:04.333Z,0.40
2018-03-22T12:37:33.733Z,0.43
2018-03-22T12:40:03.273Z,0.43
2018-03-22T12:42:33.149Z,0.30
2018-03-22T12:45:01.969Z,0.30
2018-03-22T12:47:30.828Z,0.40
2018-03-22T12:49:59.383Z,0.37
2018-03-22T12:52:27.580Z,0.50
2018-03-22T12:54:56.148Z,0.50
2018-03-22T12:57:24.744Z,0.50
2018-03-22T12:59:52.347Z,0.30
2018-03-22T13:02:19.976Z,0.40
2018-03-22T13:04:47.705Z,0.50
2018-03-22T13:07:16.149Z,0.30
2018-03-22T13:09:43.971Z,0.33
2018-03-22T13:12:13.856Z,0.37
2018-03-22T13:14:41.528Z,0.30
2018-03-22T13:17:09.181Z,0.53
2018-03-22T13:19:36.756Z,0.40
2018-03-22T13:22:05.621Z,0.47
2018-03-22T13:24:33.521Z,0.27
2018-03-22T13:27:01.419Z,0.30
2018-03-22T13:29:30.178Z,0.50
2018-03-22T13:31:57.821Z,0.63
2018-03-22T13:34:25.390Z,0.40
2018-03-22T13:36:53.453Z,0.40
2018-03-22T13:39:21.047Z,0.30
2018-03-22T13:41:48.663Z,0.50
2018-03-22T13:44:16.278Z,0.50
2018-03-22T13:46:44.908Z,0.40
2018-03-22T13:49:12.512Z,0.50
2018-03-22T13:51:40.204Z,0.40
2018-03-22T13:54:08.050Z,0.43
2018-03-22T13:56:36.675Z,0.50
2018-03-22T13:59:04.548Z,0.40
2018-03-22T14:01:32.139Z,0.50
2018-03-22T14:03:59.780Z,0.40
2018-03-22T14:06:27.444Z,0.50
2018-03-22T14:08:55.064Z,0.40
2018-03-22T14:11:22.647Z,0.47
2018-03-22T14:13:51.357Z,0.37
2018-03-22T14:16:18.936Z,0.33
2018-03-22T14:18:47.323Z,0.20
2018-03-22T14:21:14.957Z,0.40
2018-03-22T14:23:42.597Z,0.30
2018-03-22T14:26:10.591Z,0.50
2018-03-22T14:28:38.333Z,0.40
2018-03-22T14:31:05.917Z,0.23
2018-03-22T14:33:35.374Z,0.30
2018-03-22T14:36:04.462Z,0.37
2018-03-22T14:38:34.628Z,0.40
2018-03-22T14:41:02.322Z,0.40
2018-03-22T14:43:30.194Z,0.40
2018-03-22T14:45:58.090Z,0.50
2018-03-22T14:48:30.033Z,0.30
2018-03-22T14:50:58.104Z,0.20
2018-03-22T14:53:27.536Z,0.40
2018-03-22T14:55:56.310Z,0.40
2018-03-22T14:58:26.050Z,0.50
2018-03-22T15:00:55.681Z,0.30
2018-03-22T15:03:27.970Z,0.40
2018-03-22T15:05:55.663Z,0.40
2018-03-22T15:08:23.404Z,0.30
2018-03-22T15:10:50.984Z,0.57
2018-03-22T15:13:18.693Z,0.33
2018-03-22T15:15:46.276Z,0.30
2018-03-22T15:18:13.862Z,0.40
2018-03-22T15:20:41.462Z,0.40
2018-03-22T15:23:09.173Z,0.33
2018-03-22T15:25:36.848Z,0.33
2018-03-22T15:28:04.723Z,0.30
2018-03-22T15:30:33.142Z,0.30
2018-03-22T15:33:00.843Z,0.30
2018-03-22T15:35:28.565Z,0.40
2018-03-22T15:37:56.159Z,0.40
2018-03-22T15:40:23.724Z,0.40
2018-03-22T15:42:51.349Z,0.30
2018-03-22T15:45:19.574Z,0.30
2018-03-22T15:47:47.141Z,0.30
2018-03-22T15:50:15.529Z,0.20
2018-03-22T15:52:43.870Z,0.33
2018-03-22T15:55:11.558Z,0.37
2018-03-22T15:57:39.915Z,0.20
2018-03-22T16:00:07.533Z,0.50
2018-03-22T16:02:35.207Z,0.40
2018-03-22T16:05:02.808Z,0.30
2018-03-22T16:07:31.290Z,0.37
2018-03-22T16:09:59.678Z,0.60
2018-03-22T16:12:28.065Z,0.40
2018-03-22T16:14:55.719Z,0.30
2018-03-22T16:17:23.317Z,0.40
2018-03-22T16:19:50.974Z,0.40
2018-03-22T16:22:18.573Z,0.37
2018-03-22T16:24:46.238Z,0.40
2018-03-22T16:27:14.793Z,0.40
2018-03-22T16:29:42.389Z,0.37
2018-03-22T16:32:10.732Z,0.30
2018-03-22T16:34:38.535Z,0.40
2018-03-22T16:37:06.135Z,0.40
2018-03-22T16:39:33.736Z,0.40
2018-03-22T16:42:02.067Z,0.40
2018-03-22T16:44:29.655Z,0.50
2018-03-22T16:46:58.010Z,0.40
2018-03-22T16:49:25.632Z,0.53
2018-03-22T16:51:54.029Z,0.53
2018-03-22T16:54:21.633Z,0.33
2018-03-22T16:56:50.004Z,0.30
2018-03-22T16:59:17.669Z,0.57
2018-03-22T17:01:45.248Z,0.40
2018-03-22T17:04:13.628Z,0.37
2018-03-22T17:06:41.222Z,0.30
2018-03-22T17:09:08.822Z,0.30
2018-03-22T17:11:36.424Z,0.30
2018-03-22T17:14:04.300Z,0.40
2018-03-22T17:16:32.774Z,0.40
2018-03-22T17:19:00.378Z,0.50
2018-03-22T17:21:27.991Z,0.40
2018-03-22T17:23:56.180Z,0.30
2018-03-22T17:26:23.755Z,0.40
2018-03-22T17:28:51.343Z,0.30
2018-03-22T17:31:19.732Z,0.40
2018-03-22T17:33:48.208Z,0.40
2018-03-22T17:36:15.852Z,0.30
2018-03-22T17:38:43.453Z,0.30
2018-03-22T17:41:11.015Z,0.40
2018-03-22T17:43:38.984Z,0.50
2018-03-22T17:46:06.691Z,0.40
2018-03-22T17:48:35.067Z,0.47
2018-03-22T17:51:02.890Z,0.43
2018-03-22T17:53:30.625Z,0.50
2018-03-22T17:55:58.411Z,0.47
2018-03-22T17:58:25.985Z,0.40
2018-03-22T18:00:53.575Z,0.50
2018-03-22T18:03:21.139Z,0.50
2018-03-22T18:05:49.471Z,0.40
2018-03-22T18:08:17.048Z,0.30
2018-03-22T18:10:44.633Z,0.40
2018-03-22T18:13:13.021Z,0.43
2018-03-22T18:15:40.621Z,0.40
2018-03-22T18:18:08.192Z,0.40
2018-03-22T18:20:35.779Z,0.50
2018-03-22T18:23:03.367Z,0.30
2018-03-22T18:25:30.970Z,0.30
2018-03-22T18:27:58.538Z,0.40
2018-03-22T18:30:26.935Z,0.40
2018-03-22T18:32:55.280Z,0.40
2018-03-22T18:35:22.917Z,0.40
2018-03-22T18:37:51.210Z,0.30
2018-03-22T18:40:18.992Z,0.40
2018-03-22T18:42:46.566Z,0.50
2018-03-22T18:45:14.923Z,0.50
2018-03-22T18:47:42.588Z,0.33
2018-03-22T18:50:10.231Z,0.40
2018-03-22T18:52:38.859Z,0.30
2018-03-22T18:55:07.244Z,0.57
2018-03-22T18:57:34.833Z,0.47
2018-03-22T19:00:02.454Z,0.20
2018-03-22T19:02:30.854Z,0.27
2018-03-22T19:04:58.467Z,0.40
2018-03-22T19:07:27.685Z,0.40
2018-03-22T19:09:56.136Z,0.40
2018-03-22T19:12:23.962Z,0.30
2018-03-22T19:14:51.738Z,0.40
2018-03-22T19:17:19.413Z,0.30
2018-03-22T19:19:47.566Z,0.43
2018-03-22T19:22:15.182Z,0.40
2018-03-22T19:24:43.590Z,0.40
2018-03-22T19:27:11.363Z,0.40
2018-03-22T19:29:39.247Z,0.37
2018-03-22T19:32:06.911Z,0.50
2018-03-22T19:34:34.567Z,0.30
2018-03-22T19:37:02.494Z,0.33
2018-03-22T19:39:30.094Z,0.40
2018-03-22T19:41:57.759Z,0.30
2018-03-22T19:44:25.445Z,0.30
2018-03-22T19:46:53.082Z,0.30
2018-03-22T19:49:20.685Z,0.40
2018-03-22T19:51:48.296Z,0.50
2018-03-22T19:54:17.530Z,0.40
2018-03-22T19:56:45.725Z,0.40
2018-03-22T19:59:14.416Z,0.40
2018-03-22T20:01:43.517Z,0.50
2018-03-22T20:04:13.325Z,0.30
2018-03-22T20:06:42.215Z,0.40
2018-03-22T20:09:11.754Z,0.37
2018-03-22T20:11:40.197Z,0.30
2018-03-22T20:14:08.542Z,0.30
2018-03-22T20:16:37.639Z,0.20
2018-03-22T20:19:05.242Z,0.50
2018-03-22T20:21:34.464Z,0.30
2018-03-22T20:24:02.484Z,0.40
2018-03-22T20:26:30.061Z,0.30
2018-03-22T20:28:58.739Z,0.40
2018-03-22T20:31:27.892Z,0.30
2018-03-22T20:33:56.742Z,0.30
2018-03-22T20:36:25.685Z,0.17
2018-03-22T20:38:53.501Z,0.40
2018-03-22T20:41:21.237Z,0.33
2018-03-22T20:43:49.437Z,0.30
2018-03-22T20:46:17.111Z,0.40
2018-03-22T20:48:46.636Z,0.30
2018-03-22T20:51:15.744Z,0.50
2018-03-22T20:53:45.110Z,0.30
2018-03-22T20:56:13.954Z,0.50
2018-03-22T20:58:43.551Z,0.30
2018-03-22T21:01:12.110Z,0.40
2018-03-22T21:03:40.500Z,0.33
2018-03-22T21:06:08.721Z,0.30
2018-03-22T21:08:38.804Z,0.40
2018-03-22T21:11:06.529Z,0.30
2018-03-22T21:13:34.946Z,0.30
2018-03-22T21:16:04.535Z,0.30
2018-03-22T21:18:33.073Z,0.30
2018-03-22T21:21:00.799Z,0.43
2018-03-22T21:23:29.948Z,0.40
2018-03-22T21:25:57.661Z,0.20
2018-03-22T21:28:26.209Z,0.20
2018-03-22T21:30:53.895Z,0.40
2018-03-22T21:33:22.272Z,0.47
2018-03-22T21:35:51.273Z,0.43
2018-03-22T21:38:20.870Z,0.30
2018-03-22T21:40:49.634Z,0.40
2018-03-22T21:43:18.230Z,0.30
2018-03-22T21:45:47.860Z,0.27
2018-03-22T21:48:15.600Z,0.20
2018-03-22T21:50:49.298Z,0.20
2018-03-22T21:53:17.582Z,0.53
2018-03-22T21:55:47.081Z,0.30
2018-03-22T21:58:15.663Z,0.20
2018-03-22T22:00:45.534Z,0.47
2018-03-22T22:03:13.159Z,0.30
2018-03-22T22:05:42.553Z,0.30
2018-03-22T22:08:11.014Z,0.30
2018-03-22T22:10:41.311Z,0.50
2018-03-22T22:13:09.640Z,0.30
2018-03-22T22:15:38.772Z,0.30
2018-03-22T22:18:06.688Z,0.30
2018-03-22T22:20:36.017Z,0.40
2018-03-22T22:23:05.586Z,0.27
2018-03-22T22:25:34.245Z,0.30
2018-03-22T22:28:02.046Z,0.40
2018-03-22T22:30:31.203Z,0.37
2018-03-22T22:32:58.812Z,0.40
2018-03-22T22:35:26.452Z,0.30
2018-03-22T22:37:54.070Z,0.40
2018-03-22T22:40:21.737Z,0.30
2018-03-22T22:42:49.519Z,0.30
2018-03-22T22:45:18.079Z,0.30
2018-03-22T22:47:47.324Z,0.40
2018-03-22T22:50:16.295Z,0.47
2018-03-22T22:52:45.529Z,0.20
2018-03-22T22:55:15.086Z,0.30
2018-03-22T22:57:45.513Z,0.40
2018-03-22T23:00:14.710Z,0.40
2018-03-22T23:02:44.046Z,0.20
2018-03-22T23:05:12.651Z,0.20
2018-03-22T23:07:41.169Z,0.30
2018-03-22T23:10:09.818Z,0.20
2018-03-22T23:12:39.154Z,0.50
2018-03-22T23:15:09.685Z,0.30
2018-03-22T23:17:38.474Z,0.37
2018-03-22T23:20:06.215Z,0.30
2018-03-22T23:22:35.016Z,0.50
2018-03-22T23:25:04.276Z,0.30
2018-03-22T23:27:33.647Z,0.30
2018-03-22T23:30:02.298Z,0.20
2018-03-22T23:32:30.057Z,0.37
2018-03-22T23:35:00.917Z,0.40
2018-03-22T23:37:29.117Z,0.30
2018-03-22T23:39:57.623Z,0.27
2018-03-22T23:42:25.761Z,0.40
2018-03-22T23:44:54.875Z,0.47
2018-03-22T23:47:22.622Z,0.20
2018-03-22T23:49:50.258Z,0.37
2018-03-22T23:52:19.027Z,0.40
2018-03-22T23:54:48.708Z,0.30
2018-03-22T23:57:16.873Z,0.33
2018-03-22T23:59:46.762Z,0.20
